sensor_id;sensor_type;location;lat;lon;timestamp;pressure;altitude;pressure_sealevel;temperature;humidity
19811;BME280;10065;49.632;8.346;2022-10-16T00:01:31;100342.19;;;17.37;100.00
19811;BME280;10065;49.632;8.346;2022-10-16T00:04:00;100346.69;;;17.30;100.00
19811;BME280;10065;49.632;8.346;2022-10-16T00:06:30;100342.91;;;17.24;100.00
19811;BME280;10065;49.632;8.346;2022-10-16T00:08:58;100342.09;;;17.24;100.00
19811;BME280;10065;49.632;8.346;2022-10-16T00:11:27;100346.66;;;17.23;100.00
19811;BME280;10065;49.632;8.346;2022-10-16T00:13:57;100350.34;;;17.22;100.00
19811;BME280;10065;49.632;8.346;2022-10-16T00:16:26;100347.03;;;17.20;100.00
19811;BME280;10065;49.632;8.346;2022-10-16T00:18:54;100345.81;;;17.23;100.00
19811;BME280;10065;49.632;8.346;2022-10-16T00:21:24;100348.72;;;17.28;100.00
19811;BME280;10065;49.632;8.346;2022-10-16T00:23:54;100352.44;;;17.27;100.00
19811;BME280;10065;49.632;8.346;2022-10-16T00:26:22;100358.44;;;17.29;100.00
19811;BME280;10065;49.632;8.346;2022-10-16T00:28:51;100343.75;;;17.25;100.00
19811;BME280;10065;49.632;8.346;2022-10-16T00:31:20;100349.50;;;17.22;100.00
19811;BME280;10065;49.632;8.346;2022-10-16T00:33:49;100365.59;;;17.22;100.00
19811;BME280;10065;49.632;8.346;2022-10-16T00:36:19;100364.16;;;17.26;100.00
19811;BME280;10065;49.632;8.346;2022-10-16T00:38:47;100357.41;;;17.30;100.00
19811;BME280;10065;49.632;8.346;2022-10-16T00:41:22;100354.72;;;17.30;100.00
19811;BME280;10065;49.632;8.346;2022-10-16T00:43:51;100361.09;;;17.29;100.00
19811;BME280;10065;49.632;8.346;2022-10-16T00:46:21;100359.25;;;17.29;100.00
19811;BME280;10065;49.632;8.346;2022-10-16T00:48:52;100368.97;;;17.30;100.00
19811;BME280;10065;49.632;8.346;2022-10-16T00:51:24;100369.78;;;17.31;100.00
19811;BME280;10065;49.632;8.346;2022-10-16T00:53:52;100360.72;;;17.32;100.00
19811;BME280;10065;49.632;8.346;2022-10-16T00:56:22;100361.34;;;17.34;100.00
19811;BME280;10065;49.632;8.346;2022-10-16T00:58:49;100357.00;;;17.33;100.00
19811;BME280;10065;49.632;8.346;2022-10-16T01:01:17;100363.66;;;17.37;100.00
19811;BME280;10065;49.632;8.346;2022-10-16T01:03:45;100358.94;;;17.39;100.00
19811;BME280;10065;49.632;8.346;2022-10-16T01:06:22;100370.41;;;17.33;100.00
19811;BME280;10065;49.632;8.346;2022-10-16T01:09:10;100373.88;;;17.27;100.00
19811;BME280;10065;49.632;8.346;2022-10-16T01:11:45;100364.16;;;17.26;100.00
19811;BME280;10065;49.632;8.346;2022-10-16T01:14:22;100354.88;;;17.22;100.00
19811;BME280;10065;49.632;8.346;2022-10-16T01:16:54;100359.81;;;17.25;100.00
19811;BME280;10065;49.632;8.346;2022-10-16T01:19:37;100360.44;;;17.20;100.00
19811;BME280;10065;49.632;8.346;2022-10-16T01:22:09;100374.47;;;17.22;100.00
19811;BME280;10065;49.632;8.346;2022-10-16T01:24:39;100364.75;;;17.21;100.00
19811;BME280;10065;49.632;8.346;2022-10-16T01:27:11;100367.81;;;17.18;100.00
19811;BME280;10065;49.632;8.346;2022-10-16T01:29:48;100370.31;;;17.20;100.00
19811;BME280;10065;49.632;8.346;2022-10-16T01:32:22;100368.19;;;17.15;100.00
19811;BME280;10065;49.632;8.346;2022-10-16T01:34:52;100375.81;;;17.12;100.00
19811;BME280;10065;49.632;8.346;2022-10-16T01:37:28;100380.16;;;17.13;100.00
19811;BME280;10065;49.632;8.346;2022-10-16T01:40:00;100389.22;;;17.12;100.00
19811;BME280;10065;49.632;8.346;2022-10-16T01:42:35;100389.22;;;17.12;100.00
19811;BME280;10065;49.632;8.346;2022-10-16T01:45:06;100394.38;;;17.13;100.00
19811;BME280;10065;49.632;8.346;2022-10-16T01:47:37;100390.88;;;17.13;100.00
19811;BME280;10065;49.632;8.346;2022-10-16T01:50:08;100369.25;;;17.14;100.00
19811;BME280;10065;49.632;8.346;2022-10-16T01:52:39;100360.59;;;17.19;100.00
19811;BME280;10065;49.632;8.346;2022-10-16T01:55:09;100375.22;;;17.16;100.00
19811;BME280;10065;49.632;8.346;2022-10-16T01:57:42;100377.47;;;17.13;100.00
19811;BME280;10065;49.632;8.346;2022-10-16T02:00:13;100375.81;;;17.12;100.00
19811;BME280;10065;49.632;8.346;2022-10-16T02:02:47;100379.50;;;17.11;100.00
19811;BME280;10065;49.632;8.346;2022-10-16T02:05:21;100372.94;;;17.13;100.00
19811;BME280;10065;49.632;8.346;2022-10-16T02:07:50;100378.69;;;17.10;100.00
19811;BME280;10065;49.632;8.346;2022-10-16T02:10:17;100365.09;;;17.12;100.00
19811;BME280;10065;49.632;8.346;2022-10-16T02:12:50;100365.09;;;17.12;100.00
19811;BME280;10065;49.632;8.346;2022-10-16T02:15:21;100373.97;;;17.12;100.00
19811;BME280;10065;49.632;8.346;2022-10-16T02:17:48;100373.97;;;17.12;100.00
19811;BME280;10065;49.632;8.346;2022-10-16T02:20:16;100374.59;;;17.14;100.00
19811;BME280;10065;49.632;8.346;2022-10-16T02:22:47;100377.06;;;17.16;100.00
19811;BME280;10065;49.632;8.346;2022-10-16T02:25:21;100382.41;;;17.16;100.00
19811;BME280;10065;49.632;8.346;2022-10-16T02:27:54;100377.06;;;17.16;100.00
19811;BME280;10065;49.632;8.346;2022-10-16T02:30:25;100385.50;;;17.13;100.00
19811;BME280;10065;49.632;8.346;2022-10-16T02:32:55;100382.22;;;17.17;100.00
19811;BME280;10065;49.632;8.346;2022-10-16T02:35:24;100384.09;;;17.17;100.00
19811;BME280;10065;49.632;8.346;2022-10-16T02:37:53;100386.16;;;17.15;100.00
19811;BME280;10065;49.632;8.346;2022-10-16T02:40:23;100381.03;;;17.20;100.00
19811;BME280;10065;49.632;8.346;2022-10-16T02:42:54;100383.72;;;17.20;100.00
19811;BME280;10065;49.632;8.346;2022-10-16T02:45:22;100378.72;;;17.17;100.00
19811;BME280;10065;49.632;8.346;2022-10-16T02:47:50;100384.91;;;17.17;100.00
19811;BME280;10065;49.632;8.346;2022-10-16T02:50:18;100382.03;;;17.19;100.00
19811;BME280;10065;49.632;8.346;2022-10-16T02:52:45;100387.63;;;17.24;100.00
19811;BME280;10065;49.632;8.346;2022-10-16T02:55:13;100399.41;;;17.23;100.00
19811;BME280;10065;49.632;8.346;2022-10-16T02:57:41;100401.69;;;17.26;100.00
19811;BME280;10065;49.632;8.346;2022-10-16T03:00:12;100382.19;;;17.32;100.00
19811;BME280;10065;49.632;8.346;2022-10-16T03:02:41;100378.03;;;17.29;100.00
19811;BME280;10065;49.632;8.346;2022-10-16T03:05:09;100386.00;;;17.23;100.00
19811;BME280;10065;49.632;8.346;2022-10-16T03:07:37;100394.88;;;17.23;100.00
19811;BME280;10065;49.632;8.346;2022-10-16T03:10:06;100397.34;;;17.25;100.00
19811;BME280;10065;49.632;8.346;2022-10-16T03:12:33;100386.06;;;17.29;100.00
19811;BME280;10065;49.632;8.346;2022-10-16T03:15:01;100389.38;;;17.32;100.00
19811;BME280;10065;49.632;8.346;2022-10-16T03:17:31;100398.25;;;17.32;100.00
19811;BME280;10065;49.632;8.346;2022-10-16T03:19:59;100396.13;;;17.27;100.00
19811;BME280;10065;49.632;8.346;2022-10-16T03:22:27;100399.66;;;17.28;100.00
19811;BME280;10065;49.632;8.346;2022-10-16T03:24:55;100403.16;;;17.28;100.00
19811;BME280;10065;49.632;8.346;2022-10-16T03:27:22;100407.13;;;17.33;100.00
19811;BME280;10065;49.632;8.346;2022-10-16T03:29:50;100407.34;;;17.38;100.00
19811;BME280;10065;49.632;8.346;2022-10-16T03:32:18;100409.66;;;17.41;100.00
19811;BME280;10065;49.632;8.346;2022-10-16T03:34:47;100408.84;;;17.40;100.00
19811;BME280;10065;49.632;8.346;2022-10-16T03:37:15;100415.59;;;17.36;100.00
19811;BME280;10065;49.632;8.346;2022-10-16T03:39:43;100419.75;;;17.39;100.00
19811;BME280;10065;49.632;8.346;2022-10-16T03:42:10;100413.19;;;17.41;100.00
19811;BME280;10065;49.632;8.346;2022-10-16T03:44:38;100424.50;;;17.43;100.00
19811;BME280;10065;49.632;8.346;2022-10-16T03:47:06;100423.06;;;17.41;100.00
19811;BME280;10065;49.632;8.346;2022-10-16T03:49:34;100412.53;;;17.39;100.00
19811;BME280;10065;49.632;8.346;2022-10-16T03:52:03;100422.81;;;17.36;100.00
19811;BME280;10065;49.632;8.346;2022-10-16T03:54:31;100422.97;;;17.34;100.00
19811;BME280;10065;49.632;8.346;2022-10-16T03:56:58;100415.34;;;17.31;100.00
19811;BME280;10065;49.632;8.346;2022-10-16T03:59:26;100407.03;;;17.26;100.00
19811;BME280;10065;49.632;8.346;2022-10-16T04:01:53;100411.75;;;17.24;100.00
19811;BME280;10065;49.632;8.346;2022-10-16T04:04:21;100422.47;;;17.24;100.00
19811;BME280;10065;49.632;8.346;2022-10-16T04:06:49;100422.47;;;17.24;100.00
19811;BME280;10065;49.632;8.346;2022-10-16T04:09:18;100410.13;;;17.23;100.00
19811;BME280;10065;49.632;8.346;2022-10-16T04:11:45;100407.00;;;17.19;100.00
19811;BME280;10065;49.632;8.346;2022-10-16T04:14:13;100409.22;;;17.16;100.00
19811;BME280;10065;49.632;8.346;2022-10-16T04:16:41;100424.91;;;17.19;100.00
19811;BME280;10065;49.632;8.346;2022-10-16T04:19:09;100417.25;;;17.16;100.00
19811;BME280;10065;49.632;8.346;2022-10-16T04:21:37;100423.84;;;17.13;100.00
19811;BME280;10065;49.632;8.346;2022-10-16T04:24:05;100416.41;;;17.15;100.00
19811;BME280;10065;49.632;8.346;2022-10-16T04:26:33;100418.91;;;17.17;100.00
19811;BME280;10065;49.632;8.346;2022-10-16T04:29:01;100436.22;;;17.14;100.00
19811;BME280;10065;49.632;8.346;2022-10-16T04:31:29;100438.31;;;17.19;100.00
19811;BME280;10065;49.632;8.346;2022-10-16T04:33:57;100442.28;;;17.23;100.00
19811;BME280;10065;49.632;8.346;2022-10-16T04:36:24;100442.47;;;17.21;100.00
19811;BME280;10065;49.632;8.346;2022-10-16T04:38:54;100430.28;;;17.19;100.00
19811;BME280;10065;49.632;8.346;2022-10-16T04:41:22;100425.75;;;17.19;100.00
19811;BME280;10065;49.632;8.346;2022-10-16T04:43:51;100417.53;;;17.21;100.00
19811;BME280;10065;49.632;8.346;2022-10-16T04:46:18;100413.75;;;17.15;100.00
19811;BME280;10065;49.632;8.346;2022-10-16T04:48:46;100417.84;;;17.11;100.00
19811;BME280;10065;49.632;8.346;2022-10-16T04:51:14;100425.41;;;17.08;100.00
19811;BME280;10065;49.632;8.346;2022-10-16T04:53:42;100418.03;;;17.10;100.00
19811;BME280;10065;49.632;8.346;2022-10-16T04:56:09;100415.09;;;17.05;100.00
19811;BME280;10065;49.632;8.346;2022-10-16T04:58:37;100404.13;;;17.00;100.00
19811;BME280;10065;49.632;8.346;2022-10-16T05:01:06;100400.44;;;17.01;100.00
19811;BME280;10065;49.632;8.346;2022-10-16T05:03:34;100411.13;;;17.01;100.00
19811;BME280;10065;49.632;8.346;2022-10-16T05:06:01;100416.50;;;17.01;100.00
19811;BME280;10065;49.632;8.346;2022-10-16T05:08:30;100411.78;;;17.03;100.00
19811;BME280;10065;49.632;8.346;2022-10-16T05:10:58;100410.78;;;17.04;100.00
19811;BME280;10065;49.632;8.346;2022-10-16T05:13:26;100409.94;;;17.03;100.00
19811;BME280;10065;49.632;8.346;2022-10-16T05:15:53;100415.09;;;17.05;100.00
19811;BME280;10065;49.632;8.346;2022-10-16T05:18:22;100413.69;;;17.09;100.00
19811;BME280;10065;49.632;8.346;2022-10-16T05:20:50;100418.22;;;17.08;100.00
19811;BME280;10065;49.632;8.346;2022-10-16T05:23:18;100413.88;;;17.07;100.00
19811;BME280;10065;49.632;8.346;2022-10-16T05:25:52;100415.34;;;17.10;100.00
19811;BME280;10065;49.632;8.346;2022-10-16T05:28:21;100425.28;;;17.16;100.00
19811;BME280;10065;49.632;8.346;2022-10-16T05:30:48;100437.66;;;17.17;100.00
19811;BME280;10065;49.632;8.346;2022-10-16T05:33:16;100436.00;;;17.16;100.00
19811;BME280;10065;49.632;8.346;2022-10-16T05:35:45;100448.38;;;17.17;100.00
19811;BME280;10065;49.632;8.346;2022-10-16T05:38:13;100450.69;;;17.20;100.00
19811;BME280;10065;49.632;8.346;2022-10-16T05:40:41;100461.03;;;17.23;100.00
19811;BME280;10065;49.632;8.346;2022-10-16T05:43:08;100456.28;;;17.25;100.00
19811;BME280;10065;49.632;8.346;2022-10-16T05:45:36;100455.75;;;17.29;100.00
19811;BME280;10065;49.632;8.346;2022-10-16T05:48:04;100462.69;;;17.24;100.00
19811;BME280;10065;49.632;8.346;2022-10-16T05:50:33;100466.59;;;17.21;100.00
19811;BME280;10065;49.632;8.346;2022-10-16T05:53:01;100459.09;;;17.17;100.00
19811;BME280;10065;49.632;8.346;2022-10-16T05:55:29;100463.22;;;17.13;100.00
19811;BME280;10065;49.632;8.346;2022-10-16T05:57:57;100472.44;;;17.10;100.00
19811;BME280;10065;49.632;8.346;2022-10-16T06:00:25;100468.94;;;17.10;100.00
19811;BME280;10065;49.632;8.346;2022-10-16T06:02:53;100472.69;;;17.15;100.00
19811;BME280;10065;49.632;8.346;2022-10-16T06:05:21;100486.53;;;17.19;100.00
19811;BME280;10065;49.632;8.346;2022-10-16T06:07:48;100490.53;;;17.23;100.00
19811;BME280;10065;49.632;8.346;2022-10-16T06:10:18;100495.88;;;17.23;100.00
19811;BME280;10065;49.632;8.346;2022-10-16T06:12:45;100487.56;;;17.18;100.00
19811;BME280;10065;49.632;8.346;2022-10-16T06:15:13;100490.00;;;17.13;100.00
19811;BME280;10065;49.632;8.346;2022-10-16T06:17:41;100481.31;;;17.11;100.00
19811;BME280;10065;49.632;8.346;2022-10-16T06:20:09;100472.81;;;17.07;100.00
19811;BME280;10065;49.632;8.346;2022-10-16T06:22:36;100473.66;;;17.08;100.00
19811;BME280;10065;49.632;8.346;2022-10-16T06:25:05;100483.09;;;17.04;100.00
19811;BME280;10065;49.632;8.346;2022-10-16T06:27:34;100504.13;;;17.07;100.00
19811;BME280;10065;49.632;8.346;2022-10-16T06:30:01;100501.25;;;17.08;100.00
19811;BME280;10065;49.632;8.346;2022-10-16T06:32:30;100489.53;;;17.09;100.00
19811;BME280;10065;49.632;8.346;2022-10-16T06:34:57;100489.53;;;17.09;100.00
19811;BME280;10065;49.632;8.346;2022-10-16T06:37:26;100494.06;;;17.09;100.00
19811;BME280;10065;49.632;8.346;2022-10-16T06:39:54;100504.59;;;17.10;100.00
19811;BME280;10065;49.632;8.346;2022-10-16T06:42:22;100508.47;;;17.08;100.00
19811;BME280;10065;49.632;8.346;2022-10-16T06:44:51;100518.81;;;17.11;100.00
19811;BME280;10065;49.632;8.346;2022-10-16T06:47:19;100518.81;;;17.11;100.00
19811;BME280;10065;49.632;8.346;2022-10-16T06:49:47;100506.91;;;17.13;100.00
19811;BME280;10065;49.632;8.346;2022-10-16T06:52:19;100516.38;;;17.16;100.00
19811;BME280;10065;49.632;8.346;2022-10-16T06:54:47;100521.75;;;17.16;100.00
19811;BME280;10065;49.632;8.346;2022-10-16T06:57:15;100522.16;;;17.13;100.00
19811;BME280;10065;49.632;8.346;2022-10-16T06:59:42;100524.81;;;17.13;100.00
19811;BME280;10065;49.632;8.346;2022-10-16T07:02:14;100524.06;;;17.19;100.00
19811;BME280;10065;49.632;8.346;2022-10-16T07:04:41;100535.44;;;17.21;100.00
19811;BME280;10065;49.632;8.346;2022-10-16T07:07:09;100535.78;;;17.18;100.00
19811;BME280;10065;49.632;8.346;2022-10-16T07:09:36;100544.00;;;17.16;100.00
19811;BME280;10065;49.632;8.346;2022-10-16T07:12:04;100542.63;;;17.20;100.00
19811;BME280;10065;49.632;8.346;2022-10-16T07:14:32;100544.47;;;17.20;100.00
19811;BME280;10065;49.632;8.346;2022-10-16T07:16:59;100544.13;;;17.23;100.00
19811;BME280;10065;49.632;8.346;2022-10-16T07:19:28;100552.59;;;17.26;100.00
19811;BME280;10065;49.632;8.346;2022-10-16T07:22:00;100547.50;;;17.32;100.00
19811;BME280;10065;49.632;8.346;2022-10-16T07:24:27;100551.63;;;17.34;100.00
19811;BME280;10065;49.632;8.346;2022-10-16T07:26:55;100551.19;;;17.30;100.00
19811;BME280;10065;49.632;8.346;2022-10-16T07:29:23;100561.94;;;17.30;100.00
19811;BME280;10065;49.632;8.346;2022-10-16T07:31:50;100572.47;;;17.32;100.00
19811;BME280;10065;49.632;8.346;2022-10-16T07:34:19;100563.13;;;17.28;100.00
19811;BME280;10065;49.632;8.346;2022-10-16T07:36:49;100576.16;;;17.31;100.00
19811;BME280;10065;49.632;8.346;2022-10-16T07:39:17;100573.06;;;17.34;100.00
19811;BME280;10065;49.632;8.346;2022-10-16T07:41:45;100574.75;;;17.35;100.00
19811;BME280;10065;49.632;8.346;2022-10-16T07:44:13;100575.97;;;17.33;100.00
19811;BME280;10065;49.632;8.346;2022-10-16T07:46:40;100577.00;;;17.32;100.00
19811;BME280;10065;49.632;8.346;2022-10-16T07:49:08;100584.19;;;17.31;100.00
19811;BME280;10065;49.632;8.346;2022-10-16T07:51:39;100597.19;;;17.34;100.00
19811;BME280;10065;49.632;8.346;2022-10-16T07:54:09;100597.09;;;17.42;100.00
19811;BME280;10065;49.632;8.346;2022-10-16T07:56:36;100592.56;;;17.43;100.00
19811;BME280;10065;49.632;8.346;2022-10-16T07:59:09;100593.03;;;17.46;100.00
19811;BME280;10065;49.632;8.346;2022-10-16T08:01:37;100601.72;;;17.48;100.00
19811;BME280;10065;49.632;8.346;2022-10-16T08:04:05;100599.03;;;17.48;100.00
19811;BME280;10065;49.632;8.346;2022-10-16T08:06:35;100616.97;;;17.48;100.00
19811;BME280;10065;49.632;8.346;2022-10-16T08:09:04;100615.09;;;17.48;100.00
19811;BME280;10065;49.632;8.346;2022-10-16T08:11:33;100621.09;;;17.50;100.00
19811;BME280;10065;49.632;8.346;2022-10-16T08:14:01;100618.16;;;17.45;100.00
19811;BME280;10065;49.632;8.346;2022-10-16T08:16:28;100628.41;;;17.42;100.00
19811;BME280;10065;49.632;8.346;2022-10-16T08:18:56;100636.28;;;17.43;100.00
19811;BME280;10065;49.632;8.346;2022-10-16T08:21:24;100644.97;;;17.45;100.00
19811;BME280;10065;49.632;8.346;2022-10-16T08:23:53;100671.22;;;17.50;100.00
19811;BME280;10065;49.632;8.346;2022-10-16T08:26:24;100693.28;;;17.52;100.00
19811;BME280;10065;49.632;8.346;2022-10-16T08:28:54;100688.22;;;17.57;100.00
19811;BME280;10065;49.632;8.346;2022-10-16T08:31:22;100672.69;;;17.52;100.00
19811;BME280;10065;49.632;8.346;2022-10-16T08:33:50;100665.03;;;17.49;100.00
19811;BME280;10065;49.632;8.346;2022-10-16T08:36:19;100662.72;;;17.46;100.00
19811;BME280;10065;49.632;8.346;2022-10-16T08:38:48;100652.53;;;17.42;100.00
19811;BME280;10065;49.632;8.346;2022-10-16T08:44:37;100676.59;;;17.35;100.00
19811;BME280;10065;49.632;8.346;2022-10-16T08:47:13;100681.31;;;17.33;100.00
19811;BME280;10065;49.632;8.346;2022-10-16T08:49:55;100673.91;;;17.35;100.00
19811;BME280;10065;49.632;8.346;2022-10-16T08:52:27;100681.59;;;17.38;100.00
19811;BME280;10065;49.632;8.346;2022-10-16T08:54:56;100675.28;;;17.46;100.00
19811;BME280;10065;49.632;8.346;2022-10-16T08:57:25;100670.00;;;17.52;100.00
19811;BME280;10065;49.632;8.346;2022-10-16T08:59:57;100667.69;;;17.64;100.00
19811;BME280;10065;49.632;8.346;2022-10-16T09:02:31;100680.63;;;17.75;100.00
19811;BME280;10065;49.632;8.346;2022-10-16T09:05:16;100691.91;;;17.71;100.00
19811;BME280;10065;49.632;8.346;2022-10-16T09:07:49;100695.22;;;17.73;100.00
19811;BME280;10065;49.632;8.346;2022-10-16T09:10:29;100704.47;;;17.70;100.00
19811;BME280;10065;49.632;8.346;2022-10-16T09:13:03;100701.63;;;17.72;100.00
19811;BME280;10065;49.632;8.346;2022-10-16T09:15:41;100693.28;;;17.81;100.00
19811;BME280;10065;49.632;8.346;2022-10-16T09:18:15;100692.78;;;17.92;100.00
19811;BME280;10065;49.632;8.346;2022-10-16T09:20:50;100695.97;;;18.02;100.00
19811;BME280;10065;49.632;8.346;2022-10-16T09:23:22;100710.84;;;18.05;100.00
19811;BME280;10065;49.632;8.346;2022-10-16T09:25:52;100704.91;;;18.10;100.00
19811;BME280;10065;49.632;8.346;2022-10-16T09:28:21;100702.13;;;18.18;100.00
19811;BME280;10065;49.632;8.346;2022-10-16T09:30:51;100700.78;;;18.28;100.00
19811;BME280;10065;49.632;8.346;2022-10-16T09:33:20;100700.03;;;18.41;100.00
19811;BME280;10065;49.632;8.346;2022-10-16T09:35:50;100702.41;;;18.51;100.00
19811;BME280;10065;49.632;8.346;2022-10-16T09:38:24;100709.81;;;18.70;100.00
19811;BME280;10065;49.632;8.346;2022-10-16T09:40:52;100719.00;;;18.82;100.00
19811;BME280;10065;49.632;8.346;2022-10-16T09:43:33;100718.09;;;19.03;100.00
19811;BME280;10065;49.632;8.346;2022-10-16T09:46:05;100716.34;;;19.16;100.00
19811;BME280;10065;49.632;8.346;2022-10-16T09:48:37;100714.38;;;19.38;100.00
19811;BME280;10065;49.632;8.346;2022-10-16T09:51:16;100711.19;;;19.56;100.00
19811;BME280;10065;49.632;8.346;2022-10-16T09:53:46;100712.84;;;19.64;100.00
19811;BME280;10065;49.632;8.346;2022-10-16T09:56:22;100718.50;;;19.75;100.00
19811;BME280;10065;49.632;8.346;2022-10-16T09:58:52;100708.41;;;19.90;100.00
19811;BME280;10065;49.632;8.346;2022-10-16T10:01:24;100717.56;;;20.09;100.00
19811;BME280;10065;49.632;8.346;2022-10-16T10:03:56;100716.31;;;20.12;100.00
19811;BME280;10065;49.632;8.346;2022-10-16T10:06:29;100713.44;;;20.26;100.00
19811;BME280;10065;49.632;8.346;2022-10-16T10:09:00;100720.75;;;20.39;100.00
19811;BME280;10065;49.632;8.346;2022-10-16T10:11:44;100717.00;;;20.60;100.00
19811;BME280;10065;49.632;8.346;2022-10-16T10:14:20;100720.09;;;20.77;100.00
19811;BME280;10065;49.632;8.346;2022-10-16T10:16:51;100726.72;;;20.87;97.39
19811;BME280;10065;49.632;8.346;2022-10-16T10:19:21;100730.03;;;21.09;96.97
19811;BME280;10065;49.632;8.346;2022-10-16T10:21:49;100733.75;;;21.21;96.33
19811;BME280;10065;49.632;8.346;2022-10-16T10:24:19;100729.19;;;21.28;95.99
19811;BME280;10065;49.632;8.346;2022-10-16T10:26:51;100722.97;;;21.21;94.84
19811;BME280;10065;49.632;8.346;2022-10-16T10:29:36;100722.56;;;21.24;93.69
19811;BME280;10065;49.632;8.346;2022-10-16T10:32:18;100728.78;;;21.05;96.91
19811;BME280;10065;49.632;8.346;2022-10-16T10:35:12;100733.16;;;20.99;97.87
19811;BME280;10065;49.632;8.346;2022-10-16T10:37:51;100739.34;;;21.13;95.91
19811;BME280;10065;49.632;8.346;2022-10-16T10:40:29;100734.97;;;21.12;94.99
19811;BME280;10065;49.632;8.346;2022-10-16T10:43:05;100729.63;;;21.25;96.41
19811;BME280;10065;49.632;8.346;2022-10-16T10:45:42;100730.00;;;21.35;96.08
19811;BME280;10065;49.632;8.346;2022-10-16T10:48:24;100725.81;;;21.39;94.84
19811;BME280;10065;49.632;8.346;2022-10-16T10:50:58;100717.94;;;21.45;94.58
19811;BME280;10065;49.632;8.346;2022-10-16T10:53:37;100717.94;;;21.45;92.08
19811;BME280;10065;49.632;8.346;2022-10-16T10:56:16;100724.66;;;21.73;92.39
19811;BME280;10065;49.632;8.346;2022-10-16T10:58:58;100711.63;;;22.89;88.65
19811;BME280;10065;49.632;8.346;2022-10-16T11:01:36;100706.22;;;24.52;78.23
19811;BME280;10065;49.632;8.346;2022-10-16T11:04:26;100698.94;;;25.11;69.78
19811;BME280;10065;49.632;8.346;2022-10-16T11:06:58;100717.75;;;24.36;71.92
19811;BME280;10065;49.632;8.346;2022-10-16T11:09:31;100713.56;;;23.92;75.30
19811;BME280;10065;49.632;8.346;2022-10-16T11:12:05;100710.78;;;23.50;78.92
19811;BME280;10065;49.632;8.346;2022-10-16T11:14:36;100721.25;;;23.22;80.87
19811;BME280;10065;49.632;8.346;2022-10-16T11:17:10;100717.94;;;22.83;81.62
19811;BME280;10065;49.632;8.346;2022-10-16T11:19:44;100716.97;;;22.46;82.77
19811;BME280;10065;49.632;8.346;2022-10-16T11:22:17;100724.03;;;22.16;85.14
19811;BME280;10065;49.632;8.346;2022-10-16T11:24:51;100733.06;;;21.97;87.24
19811;BME280;10065;49.632;8.346;2022-10-16T11:27:37;100729.53;;;21.96;88.32
19811;BME280;10065;49.632;8.346;2022-10-16T11:30:14;100724.56;;;21.93;87.01
19811;BME280;10065;49.632;8.346;2022-10-16T11:32:53;100704.75;;;22.12;86.52
19811;BME280;10065;49.632;8.346;2022-10-16T11:35:27;100714.13;;;22.35;84.91
19811;BME280;10065;49.632;8.346;2022-10-16T11:37:58;100707.53;;;22.31;84.56
19811;BME280;10065;49.632;8.346;2022-10-16T11:40:32;100714.44;;;22.20;84.72
19811;BME280;10065;49.632;8.346;2022-10-16T11:43:07;100712.31;;;21.97;87.05
19811;BME280;10065;49.632;8.346;2022-10-16T11:45:42;100720.44;;;21.84;88.97
19811;BME280;10065;49.632;8.346;2022-10-16T11:48:18;100710.69;;;21.83;88.40
19811;BME280;10065;49.632;8.346;2022-10-16T11:50:53;100704.72;;;21.74;88.03
19811;BME280;10065;49.632;8.346;2022-10-16T11:53:32;100708.53;;;21.60;88.73
19811;BME280;10065;49.632;8.346;2022-10-16T11:56:03;100703.16;;;21.47;90.15
19811;BME280;10065;49.632;8.346;2022-10-16T11:58:35;100707.78;;;21.40;91.20
19811;BME280;10065;49.632;8.346;2022-10-16T12:01:19;100710.91;;;21.30;92.12
19811;BME280;10065;49.632;8.346;2022-10-16T12:04:12;100705.53;;;21.24;92.09
19811;BME280;10065;49.632;8.346;2022-10-16T12:06:47;100704.53;;;21.18;93.18
19811;BME280;10065;49.632;8.346;2022-10-16T12:09:21;100702.00;;;21.23;93.31
19811;BME280;10065;49.632;8.346;2022-10-16T12:11:50;100704.31;;;21.26;93.02
19811;BME280;10065;49.632;8.346;2022-10-16T12:14:38;100707.63;;;21.28;93.59
19811;BME280;10065;49.632;8.346;2022-10-16T12:17:34;100702.59;;;21.38;93.93
19811;BME280;10065;49.632;8.346;2022-10-16T12:20:20;100701.47;;;21.59;91.94
19811;BME280;10065;49.632;8.346;2022-10-16T12:22:52;100698.97;;;21.58;91.60
19811;BME280;10065;49.632;8.346;2022-10-16T12:25:24;100700.88;;;21.51;92.49
19811;BME280;10065;49.632;8.346;2022-10-16T12:27:56;100700.69;;;21.52;93.01
19811;BME280;10065;49.632;8.346;2022-10-16T12:30:26;100705.88;;;21.54;93.79
19811;BME280;10065;49.632;8.346;2022-10-16T12:33:01;100704.22;;;21.53;94.31
19811;BME280;10065;49.632;8.346;2022-10-16T12:35:32;100698.41;;;21.49;93.68
19811;BME280;10065;49.632;8.346;2022-10-16T12:38:15;100700.13;;;21.37;94.70
19811;BME280;10065;49.632;8.346;2022-10-16T12:40:44;100701.38;;;21.34;95.71
19811;BME280;10065;49.632;8.346;2022-10-16T12:43:36;100701.78;;;21.31;95.70
19811;BME280;10065;49.632;8.346;2022-10-16T12:46:21;100697.25;;;21.25;96.46
19811;BME280;10065;49.632;8.346;2022-10-16T12:48:50;100688.94;;;21.27;97.32
19811;BME280;10065;49.632;8.346;2022-10-16T12:51:35;100700.34;;;21.80;96.21
19811;BME280;10065;49.632;8.346;2022-10-16T12:54:12;100699.06;;;22.21;94.11
19811;BME280;10065;49.632;8.346;2022-10-16T12:56:48;100684.94;;;22.75;90.30
19811;BME280;10065;49.632;8.346;2022-10-16T12:59:27;100680.69;;;23.04;86.24
19811;BME280;10065;49.632;8.346;2022-10-16T13:02:39;100676.03;;;23.11;84.17
19811;BME280;10065;49.632;8.346;2022-10-16T13:05:23;100682.91;;;22.88;84.71
19811;BME280;10065;49.632;8.346;2022-10-16T13:08:02;100676.88;;;22.68;85.20